Time;durP1;ratioP1;P1;durP2;ratioP2;P2;SDS_P1;SDS_P2;PMS_P1;PMS_P2;Temp;Humidity;BMP_temperature;BMP_pressure;BME280_temperature;BME280_humidity;BME280_pressure;Samples;Min_cycle;Max_cycle;Signal;HPM_P1;HPM_P2
2024/04/15 00:00:09;;;;;;;6.10;3.40;;;;;;;14.16;100.00;99803.21;87119;278;139187;-71
2024/04/15 00:02:18;;;;;;;3.70;3.00;;;;;;;14.13;100.00;99805.55;87190;278;22650;-73
2024/04/15 00:04:19;;;;;;;3.20;2.90;;;;;;;14.13;100.00;99804.54;87151;270;136986;-72
2024/04/15 00:06:19;;;;;;;3.70;3.40;;;;;;;14.11;100.00;99804.05;87238;270;24030;-72
2024/04/15 00:08:20;;;;;;;3.50;2.50;;;;;;;14.11;100.00;99809.50;87138;270;136793;-73
2024/04/15 00:10:21;;;;;;;3.20;3.00;;;;;;;14.08;100.00;99813.23;87321;279;25181;-73
2024/04/15 00:12:21;;;;;;;3.30;3.10;;;;;;;14.08;100.00;99817.25;87061;268;138744;-74
2024/04/15 00:14:22;;;;;;;2.80;2.70;;;;;;;14.06;100.00;99814.46;87327;270;22847;-74
2024/04/15 00:16:23;;;;;;;3.20;3.00;;;;;;;14.06;100.00;99821.20;87084;272;136994;-72
2024/04/15 00:18:24;;;;;;;4.20;3.30;;;;;;;14.05;100.00;99823.70;87198;272;22627;-74
2024/04/15 00:20:29;;;;;;;2.90;2.70;;;;;;;14.06;100.00;99823.13;87089;276;136624;-73
2024/04/15 00:22:30;;;;;;;4.50;2.90;;;;;;;14.06;100.00;99825.60;87325;268;24068;-73
2024/04/15 00:24:30;;;;;;;2.80;2.70;;;;;;;14.03;100.00;99824.89;87147;275;137883;-72
2024/04/15 00:26:31;;;;;;;2.90;2.60;;;;;;;13.99;100.00;99829.06;87183;271;22553;-74
2024/04/15 00:28:32;;;;;;;2.80;2.60;;;;;;;13.95;100.00;99828.73;87088;271;137501;-73
2024/04/15 00:30:33;;;;;;;2.60;2.40;;;;;;;13.93;100.00;99828.40;87224;271;24061;-72
2024/04/15 00:32:34;;;;;;;2.70;2.40;;;;;;;13.89;100.00;99827.55;87075;271;138532;-73
2024/04/15 00:34:34;;;;;;;2.70;2.50;;;;;;;13.85;100.00;99828.21;87141;272;22541;-75
2024/04/15 00:36:36;;;;;;;2.70;2.40;;;;;;;13.82;100.00;99824.34;87046;268;137130;-75
2024/04/15 00:38:36;;;;;;;2.30;2.10;;;;;;;13.82;100.00;99814.95;87151;272;22568;-75
2024/04/15 00:40:37;;;;;;;3.10;2.70;;;;;;;13.79;100.00;99817.11;87199;270;136827;-75
2024/04/15 00:42:37;;;;;;;2.00;1.90;;;;;;;13.76;100.00;99825.94;87363;271;23000;-79
2024/04/15 00:44:38;;;;;;;1.70;1.60;;;;;;;13.74;100.00;99830.15;87215;267;136932;-75
2024/04/15 00:46:39;;;;;;;2.60;1.40;;;;;;;13.72;100.00;99837.84;87291;274;25166;-77
2024/04/15 00:48:40;;;;;;;1.40;1.30;;;;;;;13.69;100.00;99836.83;87303;267;137118;-76
2024/04/15 00:50:44;;;;;;;3.80;1.80;;;;;;;13.65;100.00;99839.92;87245;274;24347;-75
2024/04/15 00:52:45;;;;;;;2.30;1.60;;;;;;;13.60;100.00;99835.23;87201;268;137006;-77
2024/04/15 00:54:46;;;;;;;1.60;1.50;;;;;;;13.59;100.00;99839.36;87208;270;22547;-76
2024/04/15 00:56:47;;;;;;;1.40;1.10;;;;;;;13.57;100.00;99839.90;87132;268;137900;-73
2024/04/15 00:58:48;;;;;;;1.70;1.60;;;;;;;13.57;100.00;99839.29;87139;270;23817;-72
2024/04/15 01:00:52;;;;;;;1.40;1.30;;;;;;;13.52;100.00;99840.38;87282;268;137864;-76
2024/04/15 01:02:53;;;;;;;1.50;1.40;;;;;;;13.51;100.00;99848.23;87249;270;22645;-73
2024/04/15 01:04:54;;;;;;;5.10;1.70;;;;;;;13.50;100.00;99843.98;87206;279;137595;-74
2024/04/15 01:06:55;;;;;;;5.70;1.90;;;;;;;13.49;100.00;99849.71;87251;270;24010;-72
2024/04/15 01:08:56;;;;;;;2.20;1.50;;;;;;;13.47;100.00;99845.77;87144;278;136923;-74
2024/04/15 01:10:58;;;;;;;2.30;1.60;;;;;;;13.42;100.00;99838.31;87221;267;22559;-74
2024/04/15 01:12:58;;;;;;;1.80;1.30;;;;;;;13.38;100.00;99845.88;87032;278;138219;-70
2024/04/15 01:14:59;;;;;;;2.10;1.20;;;;;;;13.35;100.00;99854.10;87160;275;22563;-70
2024/04/15 01:17:00;;;;;;;1.00;1.00;;;;;;;13.34;100.00;99860.65;87015;270;138049;-78
2024/04/15 01:19:00;;;;;;;1.20;1.00;;;;;;;13.33;100.00;99860.61;87267;272;22575;-75
2024/04/15 01:21:01;;;;;;;1.40;0.80;;;;;;;13.32;100.00;99860.79;87172;268;136280;-77
2024/04/15 01:23:10;;;;;;;1.30;1.10;;;;;;;13.28;100.00;99862.77;87331;278;23997;-74
2024/04/15 01:25:10;;;;;;;1.40;1.10;;;;;;;13.20;100.00;99867.98;87354;271;137231;-72
2024/04/15 01:27:11;;;;;;;3.30;1.50;;;;;;;13.11;100.00;99872.11;87171;279;22563;-72
2024/04/15 01:31:22;;;;;;;1.90;0.40;;;;;;;12.72;95.55;99876.34;85243;303;603788;-71
2024/04/15 01:33:22;;;;;;;0.70;0.60;;;;;;;12.61;91.28;99874.90;86230;290;135392;-74
2024/04/15 01:35:24;;;;;;;1.80;0.30;;;;;;;12.53;86.31;99878.72;86181;291;22697;-73
2024/04/15 01:37:24;;;;;;;0.50;0.30;;;;;;;12.45;84.03;99876.70;86214;291;135131;-72
2024/04/15 01:39:25;;;;;;;0.70;0.30;;;;;;;12.38;80.20;99877.95;86039;292;23037;-72
2024/04/15 01:41:26;;;;;;;1.90;0.20;;;;;;;12.31;75.09;99875.98;86146;288;135187;-74
2024/04/15 01:43:27;;;;;;;1.10;0.60;;;;;;;12.23;74.54;99874.84;86102;291;26414;-73
2024/04/15 01:45:28;;;;;;;1.10;0.40;;;;;;;12.16;70.47;99875.00;85466;291;869173;-72
2024/04/15 01:47:28;;;;;;;1.10;0.10;;;;;;;12.11;69.02;99874.76;86376;286;24206;-73
2024/04/15 01:49:29;;;;;;;0.50;0.10;;;;;;;12.07;67.94;99877.16;86904;273;135518;-72
2024/04/15 01:51:30;;;;;;;3.60;0.20;;;;;;;12.05;63.46;99878.64;87115;280;25249;-72
2024/04/15 01:53:31;;;;;;;13.10;0.30;;;;;;;11.99;61.99;99881.89;87098;268;136921;-72
2024/04/15 01:55:31;;;;;;;2.40;0.20;;;;;;;11.92;59.32;99881.99;87074;274;25277;-72
2024/04/15 01:57:32;;;;;;;3.80;0.10;;;;;;;11.85;59.36;99879.30;87048;277;136445;-75
2024/04/15 01:59:33;;;;;;;2.40;0.50;;;;;;;11.79;57.91;99877.21;86973;282;22739;-76
2024/04/15 02:01:36;;;;;;;0.40;0.10;;;;;;;11.73;56.84;99872.62;86912;274;136598;-74
2024/04/15 02:03:37;;;;;;;0.30;0.10;;;;;;;11.66;56.62;99871.20;86957;282;22811;-70
2024/04/15 02:05:37;;;;;;;3.00;0.10;;;;;;;11.60;55.85;99869.35;86877;281;137197;-72
2024/04/15 02:07:38;;;;;;;2.00;0.30;;;;;;;11.53;56.09;99865.48;87047;278;22590;-72
2024/04/15 02:09:39;;;;;;;0.50;0.10;;;;;;;11.48;56.29;99866.23;87007;278;135811;-71
2024/04/15 02:11:39;;;;;;;0.40;0.10;;;;;;;11.45;56.67;99864.55;87025;274;23768;-71
2024/04/15 02:13:40;;;;;;;1.50;0.20;;;;;;;11.42;57.27;99862.50;86871;283;135950;-70
2024/04/15 02:15:41;;;;;;;0.60;0.10;;;;;;;11.38;57.27;99859.13;87013;278;22558;-74
2024/04/15 02:17:42;;;;;;;0.70;0.10;;;;;;;11.34;57.90;99857.36;86985;278;135609;-72
2024/04/15 02:19:43;;;;;;;0.10;0.10;;;;;;;11.29;58.29;99854.69;86968;281;22597;-71
2024/04/15 02:21:43;;;;;;;0.50;0.10;;;;;;;11.26;58.70;99854.78;86973;273;135232;-73
2024/04/15 02:23:44;;;;;;;2.40;0.20;;;;;;;11.22;59.03;99857.27;87119;278;22574;-72
2024/04/15 02:25:45;;;;;;;0.10;0.10;;;;;;;11.17;59.08;99855.38;87071;269;136502;-71
2024/04/15 02:27:46;;;;;;;1.20;0.20;;;;;;;11.10;59.84;99855.91;87115;274;22593;-72
2024/04/15 02:29:46;;;;;;;1.50;0.10;;;;;;;11.02;60.91;99853.48;86959;274;135835;-71
2024/04/15 02:31:47;;;;;;;0.70;0.20;;;;;;;10.97;61.67;99851.02;87072;270;22571;-73
2024/04/15 02:33:51;;;;;;;0.90;0.20;;;;;;;10.92;62.43;99856.05;87015;274;135852;-73
2024/04/15 02:35:51;;;;;;;1.40;0.20;;;;;;;10.89;62.90;99859.61;87105;281;22565;-73
2024/04/15 02:37:52;;;;;;;2.40;0.10;;;;;;;10.86;63.52;99861.13;86934;281;137270;-71
2024/04/15 02:39:53;;;;;;;1.20;0.20;;;;;;;10.83;64.00;99860.09;86979;266;22642;-73
2024/04/15 02:41:53;;;;;;;0.60;0.10;;;;;;;10.82;64.93;99864.72;86728;276;135369;-71
2024/04/15 02:43:54;;;;;;;1.00;0.20;;;;;;;10.80;65.53;99866.60;87004;271;22584;-73
2024/04/15 02:45:54;;;;;;;0.20;0.10;;;;;;;10.76;66.27;99867.95;86898;267;135146;-71
2024/04/15 02:47:55;;;;;;;0.20;0.20;;;;;;;10.73;66.66;99868.92;87028;266;24789;-72
2024/04/15 02:49:56;;;;;;;2.20;0.20;;;;;;;10.69;67.05;99867.59;87026;274;135865;-72
2024/04/15 02:51:57;;;;;;;1.00;0.20;;;;;;;10.65;67.66;99865.41;87066;282;22846;-71
2024/04/15 02:53:57;;;;;;;0.50;0.20;;;;;;;10.62;68.03;99863.80;86796;282;135700;-73
2024/04/15 02:55:58;;;;;;;0.80;0.40;;;;;;;10.59;68.70;99863.10;87002;275;22623;-74
2024/04/15 02:57:59;;;;;;;1.80;0.50;;;;;;;10.55;69.08;99864.48;86988;274;136228;-76
2024/04/15 02:59:59;;;;;;;0.70;0.30;;;;;;;10.52;69.85;99865.86;86848;283;22567;-74
2024/04/15 03:02:00;;;;;;;1.60;0.50;;;;;;;10.50;70.12;99863.65;87071;270;135353;-73
2024/04/15 03:04:01;;;;;;;2.30;0.70;;;;;;;10.48;70.92;99869.61;87052;282;24040;-73
2024/04/15 03:06:02;;;;;;;2.80;0.60;;;;;;;10.46;71.01;99872.44;86977;269;137010;-75
2024/04/15 03:08:03;;;;;;;1.60;0.20;;;;;;;10.42;71.35;99870.44;87006;274;137246;-70
2024/04/15 03:10:05;;;;;;;1.40;0.40;;;;;;;10.38;71.93;99869.29;87162;278;23007;-74
2024/04/15 03:12:06;;;;;;;1.10;0.40;;;;;;;10.33;72.17;99870.63;87102;270;135897;-74
2024/04/15 03:14:06;;;;;;;4.20;0.50;;;;;;;10.30;72.34;99874.27;86961;269;26335;-72
2024/04/15 03:16:07;;;;;;;0.50;0.20;;;;;;;10.26;72.65;99879.48;87028;274;136737;-72
2024/04/15 03:18:08;;;;;;;1.80;0.50;;;;;;;10.24;73.22;99879.64;87210;281;25079;-72
2024/04/15 03:20:09;;;;;;;2.80;0.40;;;;;;;10.22;73.95;99880.16;87056;273;136142;-73
2024/04/15 03:22:09;;;;;;;3.90;0.60;;;;;;;10.22;74.28;99884.17;87065;278;22566;-73
2024/04/15 03:24:11;;;;;;;2.40;0.70;;;;;;;10.20;74.44;99884.09;86960;274;136729;-75
2024/04/15 03:26:11;;;;;;;2.50;0.50;;;;;;;10.19;74.74;99890.23;86985;271;22654;-75
2024/04/15 03:28:12;;;;;;;6.20;1.60;;;;;;;10.20;75.37;99890.57;86797;280;136783;-73
2024/04/15 03:30:13;;;;;;;2.70;0.80;;;;;;;10.27;76.48;99895.27;87084;274;25303;-72
2024/04/15 03:32:14;;;;;;;3.40;0.30;;;;;;;10.31;76.38;99895.23;86809;270;137576;-72
2024/04/15 03:34:14;;;;;;;1.70;0.50;;;;;;;10.36;76.27;99900.70;86854;275;22596;-71
2024/04/15 03:36:15;;;;;;;1.30;0.30;;;;;;;10.40;76.36;99907.05;86972;271;135670;-72
2024/04/15 03:38:16;;;;;;;1.10;0.80;;;;;;;10.44;76.43;99906.90;87132;270;22657;-73
2024/04/15 03:40:17;;;;;;;1.00;0.40;;;;;;;10.48;76.60;99908.40;87047;274;136395;-72
2024/04/15 03:42:18;;;;;;;2.10;0.40;;;;;;;10.53;77.02;99907.55;87034;282;22570;-72
2024/04/15 03:44:18;;;;;;;1.10;0.40;;;;;;;10.59;77.24;99909.63;87002;273;136052;-72
2024/04/15 03:46:19;;;;;;;0.60;0.30;;;;;;;10.72;77.60;99907.02;87198;280;26271;-72
2024/04/15 03:48:20;;;;;;;2.50;0.50;;;;;;;10.98;78.17;99905.95;87214;270;136206;-72
2024/04/15 03:50:23;;;;;;;1.80;0.40;;;;;;;11.25;77.36;99903.65;87035;281;22568;-73
2024/04/15 03:52:26;;;;;;;1.20;0.50;;;;;;;11.42;76.41;99905.52;87037;274;135278;-76
2024/04/15 03:54:26;;;;;;;2.20;0.50;;;;;;;11.55;76.08;99899.79;87050;281;23800;-71
2024/04/15 03:56:28;;;;;;;2.20;0.70;;;;;;;11.62;76.23;99896.98;87000;272;135685;-72
2024/04/15 03:58:28;;;;;;;1.40;0.50;;;;;;;11.65;76.77;99894.39;87190;268;25243;-73
2024/04/15 04:00:30;;;;;;;3.40;0.70;;;;;;;11.66;77.20;99894.77;87081;272;135334;-73
2024/04/15 04:02:30;;;;;;;1.40;0.50;;;;;;;11.68;77.80;99892.07;87193;273;25329;-74
2024/04/15 04:04:31;;;;;;;0.80;0.50;;;;;;;11.67;78.44;99888.98;87483;274;135268;-72
2024/04/15 04:06:32;;;;;;;1.20;0.80;;;;;;;11.68;78.45;99889.39;87803;268;22578;-75
2024/04/15 04:08:33;;;;;;;2.70;0.90;;;;;;;11.87;79.00;99888.51;87542;280;137195;-74
2024/04/15 04:10:34;;;;;;;2.80;0.90;;;;;;;12.31;79.72;99885.05;87481;264;22557;-75
2024/04/15 04:12:35;;;;;;;3.90;0.90;;;;;;;13.02;78.45;99885.63;87148;279;135457;-77
2024/04/15 04:14:35;;;;;;;2.10;0.60;;;;;;;13.85;75.72;99880.06;87218;272;22629;-74
2024/04/15 04:16:36;;;;;;;6.80;1.00;;;;;;;14.68;71.88;99879.76;87059;273;135657;-76
2024/04/15 04:18:38;;;;;;;1.90;0.90;;;;;;;15.51;67.90;99874.21;87142;273;22583;-74
2024/04/15 04:20:40;;;;;;;1.70;1.00;;;;;;;16.31;64.36;99871.34;87111;265;135865;-77
2024/04/15 04:22:41;;;;;;;3.10;0.50;;;;;;;17.04;60.99;99872.96;87212;273;23852;-73
2024/04/15 04:24:42;;;;;;;3.10;0.60;;;;;;;17.73;58.30;99872.30;86964;273;137356;-72
2024/04/15 04:26:42;;;;;;;2.50;0.50;;;;;;;18.44;55.69;99868.27;87263;273;22576;-76
2024/04/15 04:28:43;;;;;;;1.20;0.30;;;;;;;19.10;53.33;99863.91;87342;277;136870;-76
2024/04/15 04:30:44;;;;;;;4.40;0.70;;;;;;;19.68;51.05;99865.89;87138;281;26228;-75
2024/04/15 04:32:45;;;;;;;1.30;0.60;;;;;;;20.23;48.93;99860.70;87102;281;136061;-76
2024/04/15 04:34:46;;;;;;;0.40;0.30;;;;;;;20.70;47.16;99861.38;87072;277;22580;-76
2024/04/15 04:36:48;;;;;;;1.20;0.40;;;;;;;21.12;45.32;99858.63;87041;270;137159;-76
2024/04/15 04:38:48;;;;;;;2.30;0.50;;;;;;;21.37;44.65;99858.81;87185;269;22561;-78
2024/04/15 04:41:00;;;;;;;3.40;0.60;;;;;;;21.51;44.11;99862.29;87349;271;136215;-76
2024/04/15 04:43:01;;;;;;;1.90;0.40;;;;;;;21.65;43.78;99862.77;88213;279;22612;-71
2024/04/15 04:45:01;;;;;;;3.20;0.50;;;;;;;21.80;43.24;99866.27;89407;265;136229;-75
2024/04/15 04:47:02;;;;;;;3.50;0.70;;;;;;;21.96;42.89;99868.14;88880;268;22567;-79
2024/04/15 04:49:03;;;;;;;2.10;0.60;;;;;;;22.13;42.35;99867.11;88058;273;135960;-77
2024/04/15 04:51:06;;;;;;;9.00;1.10;;;;;;;22.23;41.81;99865.98;88844;273;22826;-71
2024/04/15 04:53:06;;;;;;;8.80;1.20;;;;;;;22.27;41.30;99861.60;87925;269;136977;-77
2024/04/15 04:55:07;;;;;;;6.90;1.10;;;;;;;22.25;41.43;99860.40;87415;270;23729;-74
2024/04/15 04:57:08;;;;;;;3.40;1.40;;;;;;;22.32;41.15;99857.61;87285;269;135981;-77
2024/04/15 04:59:09;;;;;;;3.70;1.10;;;;;;;22.42;41.02;99855.67;87295;270;22642;-74
2024/04/15 05:01:17;;;;;;;3.30;0.50;;;;;;;22.42;41.17;99855.45;87195;279;135874;-73
2024/04/15 05:03:18;;;;;;;1.40;0.50;;;;;;;22.42;41.25;99855.03;87160;281;22591;-75
2024/04/15 05:05:18;;;;;;;1.80;0.60;;;;;;;22.52;41.14;99849.11;86991;277;136463;-72
2024/04/15 05:07:19;;;;;;;1.40;0.70;;;;;;;22.49;41.03;99842.77;87153;273;25220;-78
2024/04/15 05:09:21;;;;;;;2.20;0.90;;;;;;;22.34;41.54;99835.30;86872;281;135945;-76
2024/04/15 05:11:21;;;;;;;3.50;0.60;;;;;;;22.28;42.12;99825.94;87221;265;26040;-75
2024/04/15 05:13:22;;;;;;;5.20;0.50;;;;;;;22.28;41.16;99816.38;87081;265;137086;-77
2024/04/15 05:15:23;;;;;;;5.80;0.80;;;;;;;22.31;40.91;99820.10;87052;277;22547;-78
2024/04/15 05:17:23;;;;;;;4.50;1.20;;;;;;;22.27;41.08;99819.84;87004;274;136246;-75
2024/04/15 05:19:24;;;;;;;6.50;0.90;;;;;;;22.12;40.53;99818.80;87251;276;23880;-75
2024/04/15 05:21:25;;;;;;;3.10;1.00;;;;;;;21.99;39.92;99815.65;87097;281;137590;-76
2024/04/15 05:23:26;;;;;;;1.70;0.80;;;;;;;21.93;40.49;99812.23;87192;277;22654;-74
2024/04/15 05:25:27;;;;;;;2.50;0.50;;;;;;;22.01;40.28;99808.86;87160;277;136168;-75
2024/04/15 05:27:27;;;;;;;1.90;0.70;;;;;;;22.03;39.08;99803.41;87112;270;22645;-75
2024/04/15 05:29:28;;;;;;;0.90;0.20;;;;;;;21.88;35.62;99804.13;86992;270;135948;-75
2024/04/15 05:31:29;;;;;;;1.10;0.20;;;;;;;21.63;36.59;99802.07;87104;273;22639;-75
2024/04/15 05:33:29;;;;;;;3.50;0.40;;;;;;;21.55;36.24;99806.11;86977;277;137512;-74
2024/04/15 05:35:30;;;;;;;1.10;0.20;;;;;;;21.49;35.46;99810.13;87047;273;25313;-76
2024/04/15 05:37:30;;;;;;;3.30;0.20;;;;;;;21.39;33.83;99810.27;87008;276;136673;-74
2024/04/15 05:39:31;;;;;;;2.20;0.40;;;;;;;21.32;33.13;99809.15;87054;277;23019;-74
2024/04/15 05:41:32;;;;;;;1.20;0.20;;;;;;;21.34;33.10;99811.15;86969;273;137870;-74
2024/04/15 05:43:32;;;;;;;1.00;0.20;;;;;;;21.30;33.40;99801.73;87104;280;22567;-76
2024/04/15 05:45:34;;;;;;;1.10;0.20;;;;;;;21.22;32.64;99800.91;86761;268;136314;-76
2024/04/15 05:47:35;;;;;;;0.70;0.30;;;;;;;21.13;34.18;99800.09;87308;270;24034;-75
2024/04/15 05:49:37;;;;;;;2.20;0.60;;;;;;;21.07;35.18;99798.91;86831;273;136867;-72
2024/04/15 05:51:38;;;;;;;1.60;0.30;;;;;;;20.99;35.19;99795.02;87145;272;22571;-76
2024/04/15 05:53:39;;;;;;;1.50;0.40;;;;;;;20.90;35.19;99789.00;87067;280;135598;-74
2024/04/15 05:55:40;;;;;;;4.00;0.30;;;;;;;20.82;36.03;99788.50;87165;276;23959;-74
2024/04/15 05:57:41;;;;;;;1.20;0.40;;;;;;;20.84;35.60;99789.31;87159;272;135266;-75
2024/04/15 05:59:42;;;;;;;0.80;0.30;;;;;;;20.84;34.36;99789.47;87304;272;25185;-76
2024/04/15 06:01:42;;;;;;;0.70;0.10;;;;;;;20.68;33.60;99794.11;86954;280;137476;-73
2024/04/15 06:03:44;;;;;;;1.20;0.40;;;;;;;20.47;33.44;99800.39;87101;281;23744;-75
2024/04/15 06:05:44;;;;;;;2.20;0.30;;;;;;;20.33;33.18;99802.50;86927;272;136038;-73
2024/04/15 06:07:45;;;;;;;0.60;0.20;;;;;;;20.12;32.49;99804.91;86972;269;25133;-77
2024/04/15 06:09:46;;;;;;;4.10;0.20;;;;;;;19.98;32.34;99808.43;86855;272;135813;-77
2024/04/15 06:11:46;;;;;;;1.90;0.10;;;;;;;20.07;33.24;99814.54;86899;273;22651;-79
2024/04/15 06:13:47;;;;;;;1.60;0.10;;;;;;;20.18;31.42;99819.77;86816;280;137474;-73
2024/04/15 06:15:48;;;;;;;1.70;0.20;;;;;;;20.01;31.09;99817.80;86941;267;22773;-75
2024/04/15 06:17:49;;;;;;;0.50;0.30;;;;;;;19.90;31.77;99807.36;86847;268;135358;-75
2024/04/15 06:19:49;;;;;;;0.90;0.30;;;;;;;19.74;31.60;99791.42;86957;276;24026;-79
2024/04/15 06:21:50;;;;;;;1.90;0.40;;;;;;;19.47;32.58;99784.21;86791;269;136045;-77
2024/04/15 06:23:51;;;;;;;1.30;0.20;;;;;;;19.29;33.20;99785.93;86715;274;22565;-76
2024/04/15 06:25:53;;;;;;;1.20;0.30;;;;;;;19.14;33.50;99785.34;86824;272;136292;-77
2024/04/15 06:27:54;;;;;;;1.40;0.20;;;;;;;19.08;34.29;99788.21;86911;269;24014;-78
2024/04/15 06:29:54;;;;;;;2.00;0.30;;;;;;;19.04;34.77;99783.54;86826;281;136810;-81
2024/04/15 06:31:55;;;;;;;2.80;0.30;;;;;;;18.96;35.44;99784.34;86959;272;22558;-78
2024/04/15 06:33:56;;;;;;;2.20;0.30;;;;;;;18.91;36.15;99782.23;86991;280;135798;-78
2024/04/15 06:35:57;;;;;;;7.30;0.20;;;;;;;18.92;35.85;99781.65;86962;273;22567;-77
2024/04/15 06:37:57;;;;;;;2.50;0.30;;;;;;;18.82;35.80;99783.45;87623;269;136641;-77
2024/04/15 06:39:58;;;;;;;2.20;0.50;;;;;;;18.72;36.24;99780.10;86995;280;23657;-76
2024/04/15 06:41:59;;;;;;;1.10;0.20;;;;;;;18.73;35.65;99780.80;86954;276;135866;-75
2024/04/15 06:43:59;;;;;;;2.20;0.20;;;;;;;18.82;35.40;99775.45;87001;270;22573;-76
2024/04/15 06:46:00;;;;;;;2.50;0.20;;;;;;;18.95;34.35;99771.41;87186;280;135496;-76
2024/04/15 06:48:00;;;;;;;1.90;0.40;;;;;;;19.06;33.62;99766.04;86984;272;23994;-77
2024/04/15 06:50:02;;;;;;;2.10;0.80;;;;;;;19.08;33.24;99761.95;86919;279;136643;-76
2024/04/15 06:52:03;;;;;;;1.50;0.30;;;;;;;18.96;33.55;99758.35;86956;280;136613;-72
2024/04/15 06:54:05;;;;;;;1.50;0.50;;;;;;;18.73;33.71;99764.99;87026;266;23574;-78
2024/04/15 06:56:06;;;;;;;1.50;0.20;;;;;;;18.50;34.61;99766.27;86884;273;137344;-75
2024/04/15 06:58:06;;;;;;;0.50;0.20;;;;;;;18.41;35.19;99760.95;87039;271;22584;-78
2024/04/15 07:00:08;;;;;;;1.60;0.50;;;;;;;18.37;35.95;99759.50;87004;279;136085;-77
2024/04/15 07:02:10;;;;;;;4.40;0.80;;;;;;;18.34;37.32;99758.45;87042;272;25327;-79
2024/04/15 07:04:11;;;;;;;1.40;0.40;;;;;;;18.35;38.41;99761.59;86918;276;136520;-75
2024/04/15 07:06:12;;;;;;;1.90;0.40;;;;;;;18.35;38.62;99765.59;87093;272;22808;-77
2024/04/15 07:08:12;;;;;;;2.40;0.20;;;;;;;18.36;38.41;99771.48;86875;280;137504;-70
2024/04/15 07:10:13;;;;;;;1.60;0.70;;;;;;;18.35;38.81;99769.52;86836;281;24001;-77
2024/04/15 07:12:14;;;;;;;2.40;0.50;;;;;;;18.34;39.84;99769.89;86818;272;135806;-77
2024/04/15 07:14:15;;;;;;;1.60;0.60;;;;;;;18.28;40.15;99760.05;86988;273;22555;-79
2024/04/15 07:16:15;;;;;;;1.30;0.50;;;;;;;18.21;40.55;99750.01;86929;274;138169;-77
2024/04/15 07:18:16;;;;;;;6.20;0.60;;;;;;;18.15;41.65;99743.40;87022;272;22809;-75
2024/04/15 07:20:17;;;;;;;1.30;0.40;;;;;;;18.08;42.55;99748.52;86982;276;135983;-77
2024/04/15 07:22:19;;;;;;;4.90;0.70;;;;;;;18.01;43.36;99756.52;86920;272;22718;-77
2024/04/15 07:24:20;;;;;;;0.50;0.50;;;;;;;17.91;44.36;99756.50;86878;280;136357;-76
2024/04/15 07:26:21;;;;;;;2.90;0.70;;;;;;;17.82;44.50;99755.63;87177;269;26186;-76
2024/04/15 07:28:22;;;;;;;4.00;0.60;;;;;;;17.76;45.21;99751.64;86833;273;136617;-78
2024/04/15 07:30:23;;;;;;;1.30;0.50;;;;;;;17.75;45.60;99744.58;86981;280;23996;-77
2024/04/15 07:32:27;;;;;;;2.40;0.80;;;;;;;17.79;46.03;99735.34;87165;268;137023;-81
2024/04/15 07:34:28;;;;;;;4.00;0.60;;;;;;;17.78;45.04;99738.25;86942;273;24030;-77
2024/04/15 07:36:29;;;;;;;1.70;1.10;;;;;;;17.73;43.87;99740.66;86908;276;136200;-77
2024/04/15 07:38:30;;;;;;;2.90;0.50;;;;;;;17.59;42.87;99739.73;87023;272;25319;-76
2024/04/15 07:40:30;;;;;;;1.20;0.30;;;;;;;17.45;42.77;99740.19;86985;273;136183;-76
2024/04/15 07:42:32;;;;;;;5.90;0.80;;;;;;;17.28;41.03;99720.77;87141;264;23842;-74
2024/04/15 07:44:33;;;;;;;3.70;0.20;;;;;;;17.14;40.81;99713.73;86992;280;137089;-74
2024/04/15 07:46:33;;;;;;;4.20;0.60;;;;;;;17.13;40.88;99712.70;87087;276;24145;-78
2024/04/15 07:48:34;;;;;;;2.60;0.30;;;;;;;17.20;39.80;99704.73;86970;273;136676;-76
2024/04/15 07:50:34;;;;;;;3.00;0.60;;;;;;;17.27;39.43;99699.54;87113;273;23794;-76
2024/04/15 07:52:35;;;;;;;5.90;0.30;;;;;;;17.34;39.81;99696.20;86946;274;136333;-79
2024/04/15 07:54:37;;;;;;;4.00;0.20;;;;;;;17.41;39.37;99689.02;87064;272;22567;-73
2024/04/15 07:56:37;;;;;;;0.80;0.20;;;;;;;17.47;39.65;99690.70;86973;273;136293;-76
2024/04/15 07:58:38;;;;;;;1.80;0.20;;;;;;;17.49;39.78;99691.96;87123;276;24028;-77
2024/04/15 08:00:39;;;;;;;4.60;0.40;;;;;;;17.48;39.25;99683.29;86938;268;135911;-75
2024/04/15 08:02:40;;;;;;;2.60;0.40;;;;;;;17.49;39.67;99679.73;87010;280;24712;-75
2024/04/15 08:04:41;;;;;;;3.40;0.40;;;;;;;17.57;40.16;99674.02;86988;272;135504;-74
2024/04/15 08:06:41;;;;;;;2.70;0.30;;;;;;;17.64;40.03;99670.98;87114;273;24002;-78
2024/04/15 08:08:43;;;;;;;3.40;0.30;;;;;;;17.73;40.09;99676.52;87003;276;136566;-78
2024/04/15 08:10:43;;;;;;;2.80;0.30;;;;;;;17.84;39.26;99679.19;87135;280;24264;-74
2024/04/15 08:12:44;;;;;;;4.60;0.90;;;;;;;17.88;39.28;99686.09;86966;281;137594;-76
2024/04/15 08:14:45;;;;;;;4.10;0.40;;;;;;;17.85;39.72;99688.86;87034;274;24171;-77
2024/04/15 08:16:46;;;;;;;6.30;0.50;;;;;;;17.80;40.57;99689.06;87001;280;137795;-77
2024/04/15 08:18:48;;;;;;;2.50;0.40;;;;;;;17.76;40.81;99685.02;87067;273;22582;-75
2024/04/15 08:20:55;;;;;;;1.80;0.30;;;;;;;17.72;40.86;99682.71;87107;268;137322;-75
2024/04/15 08:22:56;;;;;;;2.10;0.30;;;;;;;17.70;41.37;99680.68;87183;272;24078;-74
2024/04/15 08:24:58;;;;;;;4.50;0.40;;;;;;;17.74;41.80;99678.52;86930;281;135836;-73
2024/04/15 08:27:00;;;;;;;2.60;0.60;;;;;;;17.80;42.15;99684.67;87044;280;21999;-75
2024/04/15 08:29:03;;;;;;;6.20;0.60;;;;;;;17.89;43.00;99691.61;87023;281;136137;-77
2024/04/15 08:31:04;;;;;;;5.30;0.90;;;;;;;17.99;43.76;99687.67;87147;280;22599;-77
2024/04/15 08:33:05;;;;;;;1.70;1.30;;;;;;;18.06;44.07;99685.33;86884;272;136794;-74
2024/04/15 08:35:06;;;;;;;4.50;0.70;;;;;;;18.11;44.46;99682.41;86983;277;24158;-77
2024/04/15 08:37:07;;;;;;;4.10;1.10;;;;;;;18.15;44.97;99683.91;86899;277;135827;-75
2024/04/15 08:39:08;;;;;;;3.50;0.60;;;;;;;18.17;45.97;99677.08;87203;273;22631;-73
2024/04/15 08:41:35;;;;;;;1.80;0.30;;;;;;;18.19;46.46;99676.61;87077;276;137130;-75
2024/04/15 08:43:37;;;;;;;1.30;0.60;;;;;;;18.19;46.69;99671.60;87178;273;22570;-77
2024/04/15 08:45:43;;;;;;;4.10;0.40;;;;;;;18.19;46.18;99669.66;86988;269;136174;-72
2024/04/15 08:47:52;;;;;;;1.80;0.60;;;;;;;18.16;45.97;99664.56;87040;273;25174;-77
2024/04/15 08:49:53;;;;;;;4.70;0.80;;;;;;;18.13;46.14;99657.40;87013;281;137297;-78
2024/04/15 08:51:56;;;;;;;1.10;0.30;;;;;;;18.07;45.71;99658.05;87098;268;25142;-77
2024/04/15 08:53:57;;;;;;;2.30;0.30;;;;;;;17.99;45.75;99656.19;87135;273;137057;-77
2024/04/15 08:55:57;;;;;;;6.30;0.40;;;;;;;17.92;46.04;99652.98;87022;282;22667;-77
2024/04/15 08:57:59;;;;;;;3.60;0.40;;;;;;;17.90;45.89;99664.88;86994;279;138076;-79
2024/04/15 09:00:01;;;;;;;3.50;0.50;;;;;;;17.87;45.60;99659.04;87061;281;22663;-76
2024/04/15 09:02:06;;;;;;;3.60;0.40;;;;;;;17.83;45.85;99657.61;87551;272;137482;-76
2024/04/15 09:04:07;;;;;;;2.90;0.30;;;;;;;17.83;45.32;99649.58;87204;273;136385;-78
2024/04/15 09:06:08;;;;;;;2.80;0.20;;;;;;;17.82;44.31;99658.57;87195;280;23972;-80
2024/04/15 09:08:09;;;;;;;1.70;0.20;;;;;;;17.78;44.18;99657.43;87288;269;135681;-78
2024/04/15 09:10:11;;;;;;;2.90;0.30;;;;;;;17.71;44.07;99655.86;87426;280;23887;-77
2024/04/15 09:12:12;;;;;;;1.20;0.60;;;;;;;17.63;44.40;99662.18;87118;270;136373;-77
2024/04/15 09:14:13;;;;;;;1.80;0.40;;;;;;;17.56;44.48;99663.86;87064;273;22568;-78
2024/04/15 09:16:15;;;;;;;5.00;0.70;;;;;;;17.47;44.50;99656.37;87058;272;136112;-78
2024/04/15 09:18:16;;;;;;;2.10;0.20;;;;;;;17.40;44.79;99666.20;87023;273;22661;-71
2024/04/15 09:20:19;;;;;;;0.80;0.20;;;;;;;17.38;44.80;99674.09;86877;281;136512;-78
2024/04/15 09:22:20;;;;;;;2.70;0.40;;;;;;;17.35;44.41;99671.14;86982;272;22563;-75
2024/04/15 09:24:21;;;;;;;10.00;1.10;;;;;;;17.33;43.50;99687.55;86818;280;136485;-74
2024/04/15 09:26:22;;;;;;;5.30;0.60;;;;;;;17.29;43.72;99690.30;87147;280;22570;-78
2024/04/15 09:28:25;;;;;;;6.00;1.30;;;;;;;17.26;43.71;99687.25;87032;273;136210;-79
2024/04/15 09:30:29;;;;;;;4.40;0.40;;;;;;;17.23;44.23;99688.05;87056;279;22683;-77
2024/04/15 09:32:30;;;;;;;9.80;1.70;;;;;;;17.22;44.18;99679.65;87472;268;135660;-80
2024/04/15 09:34:31;;;;;;;7.10;1.40;;;;;;;17.25;44.28;99669.29;87067;273;23893;-81